• Join FlightAware (Why Join?)
  • Login
  • US Flag 
06:11AM EDT


 

Airport Tracker/Info


-or-


 

Live Flight TrackerFlight Track Log ✈ SKW5230 ✈ 04-Aug-2014 ✈ KATL - KIAH

Flight Track Log - Related Links

Times and Time Zones

All times are in EDT time to prevent confusion due to time zone crossing. See the SKW5230 flight status page for this flight to view local times or setup timezone preferences in your user account.

Time Position Orientation Groundspeed Altitude Reporting Facility
EDT Latitude Longitude Course Direction KTS MPH feet Rate Location/Type
07:40PM 33.6667 -84.3500 77° East 200 230 3,400  Level Atlanta TRACON
07:41PM 33.7167 -84.2833 48° Northeast 250 288 5,700 2,280 Climbing Atlanta TRACON
07:42PM 33.4841 -84.9688 251° West  Level Estimated
07:42PM 33.7833 -84.2833 360° North 280 322 8,000  Level Atlanta TRACON
07:45PM 33.7844 -84.6286 270° West 328 377 14,900 1,980 Climbing Atlanta Center
07:46PM 33.7236 -84.7206 232° Southwest 328 377 16,800 1,620 Climbing Atlanta Center
07:47PM 33.6603 -84.8200 233° Southwest 347 399 18,200 1,440 Climbing Atlanta Center
07:48PM 33.6136 -84.9367 244° Southwest 373 429 19,700 1,500 Climbing Atlanta Center
07:49PM 33.5708 -85.0536 246° West 387 445 21,200 1,440 Climbing Atlanta Center
07:50PM 33.5281 -85.1778 248° West 397 457 22,600 1,260 Climbing Atlanta Center
07:51PM 33.4997 -85.3044 255° West 397 457 23,800 1,140 Climbing Atlanta Center
07:52PM 33.4794 -85.4411 260° West 404 465 24,900 1,020 Climbing Atlanta Center
07:53PM 33.4569 -85.5750 259° West 415 478 25,900 960 Climbing Atlanta Center
07:54PM 33.4344 -85.7117 259° West 415 478 26,900 960 Climbing Atlanta Center
07:55PM 33.4139 -85.8331 259° West 421 484 27,900 900 Climbing Atlanta Center
07:56PM 33.3908 -85.9719 259° West 421 484 28,800 900 Climbing Atlanta Center
07:57PM 33.3678 -86.1158 259° West 431 496 29,700 660 Climbing Atlanta Center
07:58PM 33.3464 -86.2619 260° West 437 503 30,200 480 Climbing Atlanta Center
07:59PM 33.3228 -86.4056 259° West 443 510 30,700 480 Climbing Atlanta Center
08:00PM 33.2989 -86.5514 259° West 449 517 31,200 480 Climbing Atlanta Center
08:01PM 33.2728 -86.7047 259° West 455 524 31,700 600 Climbing Atlanta Center
08:02PM 33.2486 -86.8531 259° West 462 532 32,400 720 Climbing Atlanta Center
08:03PM 33.2283 -87.0039 261° West 468 539 33,200 720 Climbing Atlanta Center
08:04PM 33.2142 -87.1597 264° West 463 533 33,900 660 Climbing Atlanta Center
08:05PM 33.1997 -87.3083 263° West 451 519 34,600 720 Climbing Atlanta Center
08:08PM 33.1683 -87.6503 264° West 445 512 36,400 720 Climbing Memphis Center
08:09PM 33.1533 -87.7911 263° West 433 498 37,200 600 Climbing Memphis Center
08:10PM 33.1394 -87.9303 263° West 425 489 37,700 360 Climbing Memphis Center
08:11PM 33.1156 -88.0675 258° West 425 489 38,000 120 Climbing Memphis Center
08:12PM 33.0647 -88.1939 244° Southwest 422 486 38,000  Level Memphis Center
08:13PM 33.0072 -88.3358 244° Southwest 424 488 38,000  Level Memphis Center
08:14PM 32.9564 -88.4636 245° Southwest 425 489 38,000  Level Memphis Center
08:15PM 32.9064 -88.5919 245° Southwest 427 491 38,000  Level Memphis Center
08:16PM 32.8544 -88.7197 244° Southwest 430 495 38,000  Level Memphis Center
08:17PM 32.7922 -88.8731 244° Southwest 430 495 38,000  Level Memphis Center
08:18PM 32.7406 -89.0022 245° Southwest 431 496 38,000  Level Memphis Center
08:19PM 32.6889 -89.1319 245° Southwest 434 499 38,000  Level Memphis Center
08:20PM 32.6350 -89.2631 244° Southwest 437 503 38,000  Level Memphis Center
08:21PM 32.5817 -89.3942 244° Southwest 438 504 38,000  Level Memphis Center
08:22PM 32.5283 -89.5256 244° Southwest 439 505 38,000  Level Memphis Center
08:23PM 32.4633 -89.6836 244° Southwest 441 507 38,000  Level Memphis Center
08:24PM 32.4086 -89.8156 244° Southwest 442 509 38,000  Level Memphis Center
08:25PM 32.3536 -89.9469 244° Southwest 443 510 38,000  Level Memphis Center
08:26PM 32.2983 -90.0794 244° Southwest 447 514 38,000  Level Memphis Center
08:27PM 32.2439 -90.2128 244° Southwest 448 516 38,000  Level Memphis Center
08:28PM 32.1892 -90.3439 244° Southwest 448 516 38,000  Level Memphis Center
08:29PM 32.1228 -90.5000 243° Southwest 447 514 38,000  Level Memphis Center
08:30PM 32.0681 -90.6306 244° Southwest 447 514 38,000  Level Memphis Center
08:31PM 32.0119 -90.7611 243° Southwest 447 514 38,000  Level Memphis Center
08:32PM 31.9561 -90.8928 243° Southwest 448 516 38,000  Level Memphis Center
08:34PM 31.9000 -91.0231 243° Southwest 448 516 38,000  Level Memphis Center
08:35PM 31.8433 -91.1553 243° Southwest 451 519 38,000  Level Memphis Center
08:36PM 31.7842 -91.2950 244° Southwest 457 526 38,000  Level Houston Center
08:37PM 31.7136 -91.4542 243° Southwest 457 526 38,000  Level Houston Center
08:38PM 31.6572 -91.5867 243° Southwest 457 526 38,000  Level Houston Center
08:39PM 31.6111 -91.7233 248° West 455 524 38,000  Level Houston Center
08:40PM 31.5692 -91.8614 250° West 453 521 38,000  Level Houston Center
08:41PM 31.5225 -91.9981 248° West 452 520 38,000  Level Houston Center
08:42PM 31.4481 -92.1425 239° Southwest 452 520 38,000  Level Houston Center
08:43PM 31.3800 -92.2681 238° Southwest 453 521 38,000  Level Houston Center
08:44PM 31.3119 -92.3936 238° Southwest 455 524 38,000  Level Houston Center
08:45PM 31.2439 -92.5222 238° Southwest 462 532 38,000  Level Houston Center
08:46PM 31.1986 -92.6658 250° West 465 535 38,000  Level Houston Center
08:47PM 31.1494 -92.8050 248° West 468 539 38,000  Level Houston Center
08:48PM 31.1006 -92.9444 248° West 468 539 38,000  Level Houston Center
08:49PM 31.0808 -93.1217 263° West 457 526 38,000 -120 Level Houston Center
08:50PM 31.0703 -93.2681 265° West 457 526 37,800 -840 Descending Houston Center
08:51PM 31.0600 -93.4194 266° West 465 535 36,300 -1,620 Descending Houston Center
08:52PM 31.0483 -93.5747 265° West 480 552 34,500 -1,740 Descending Houston Center
08:53PM 31.0347 -93.7356 264° West 497 572 32,800 -2,520 Descending Houston Center
08:54PM 30.9908 -93.8800 251° West 491 565 29,400 -3,840 Descending Houston Center
08:55PM 30.8811 -94.0250 229° Southwest 498 573 24,900 -3,900 Descending Houston Center
08:56PM 30.7986 -94.1394 230° Southwest 478 550 21,500 -3,180 Descending Houston Center
08:57PM 30.7281 -94.2372 230° Southwest 449 517 18,500 -3,360 Descending Houston Center
08:58PM 30.6633 -94.3275 230° Southwest 426 490 15,700 -3,300 Descending Houston Center
08:58PM 30.6464 -94.3503 229° Southwest 427 491 15,200 -2,040 Descending Houston Center
08:59PM 30.5789 -94.4433 230° Southwest 384 442 13,000 -1,620 Descending Houston Center
09:00PM 30.5078 -94.5422 230° Southwest 335 386 12,000 -540 Descending Houston Center
09:01PM 30.4472 -94.6325 232° Southwest 354 407 12,000 -360 Level Houston Center
09:02PM 30.3900 -94.7125 230° Southwest 354 407 11,300 -1,020 Descending Houston Center
09:03PM 30.3211 -94.8061 230° Southwest 335 386 10,000 -660 Descending Houston Center
09:04PM 30.2594 -94.8864 228° Southwest 340 391 10,000  Level Houston Center
09:05PM 30.1983 -94.9739 231° Southwest 336 387 10,000 -300 Level Houston Center
09:06PM 30.1389 -95.0564 230° Southwest 301 346 9,400 -1,140 Descending Houston Center
09:07PM 30.1156 -95.1439 253° West 290 334 7,800 -1,680 Descending Houston Center
09:08PM 30.1008 -95.2350 259° West 288 331 6,100 -1,500 Descending Houston Center
09:09PM 30.0925 -95.3278 264° West 276 318 4,800 -1,140 Descending Houston Center
09:10PM 30.0919 -95.4122 270° West 238 274 3,900 -900 Descending Houston Center
09:12PM 30.0925 -95.4794 271° West 244 281 3,000 -480 Descending Houston Center
09:13PM 30.0883 -95.5519 266° West 233 268 3,000  Level Houston Center
09:14PM 30.0200 -95.5542 182° South 231 266 3,000 -240 Level Houston Center
09:15PM 30.0089 -95.4922 102° East 195 224 2,600 -420 Descending Houston Center
09:16PM 30.0067 -95.4411 93° East 186 214 2,200 -900 Descending Houston Center
09:17PM 30.0072 -95.4019 89° East 147 169 800 -960 Descending Houston Center
09:18PM 30.0072 -95.3575 90° East 137 158 300 -540 Descending Houston Center